Time;durP1;ratioP1;P1;durP2;ratioP2;P2;SDS_P1;SDS_P2;PMS_P1;PMS_P2;Temp;Humidity;BMP_temperature;BMP_pressure;BME280_temperature;BME280_humidity;BME280_pressure;Samples;Min_cycle;Max_cycle;Signal;HPM_P1;HPM_P2
2023/01/22 00:00:16;;;;;;;29.13;16.40;;;0.60;99.90;;;;;;5053725;28;20225;-77
2023/01/22 00:02:42;;;;;;;27.40;16.87;;;0.50;99.90;;;;;;5052099;28;20200;-77
2023/01/22 00:05:08;;;;;;;26.83;15.73;;;0.60;99.90;;;;;;5053757;28;20190;-77
2023/01/22 00:07:33;;;;;;;28.87;16.33;;;0.60;99.90;;;;;;5052842;28;20184;-77
2023/01/22 00:09:59;;;;;;;31.50;18.17;;;0.60;99.90;;;;;;5053500;28;20210;-77
2023/01/22 00:12:25;;;;;;;26.50;15.63;;;0.60;99.90;;;;;;5053592;28;20194;-76
2023/01/22 00:14:51;;;;;;;28.87;16.03;;;0.60;99.90;;;;;;5053275;28;20168;-77
2023/01/22 00:17:17;;;;;;;26.07;15.10;;;0.60;99.90;;;;;;5052657;28;20635;-77
2023/01/22 00:19:42;;;;;;;27.23;15.67;;;0.70;99.90;;;;;;5053719;28;20194;-77
2023/01/22 00:22:10;;;;;;;27.37;15.90;;;0.70;99.90;;;;;;5053417;28;20647;-77
2023/01/22 00:24:35;;;;;;;26.87;16.10;;;0.70;99.90;;;;;;5053253;28;20168;-77
2023/01/22 00:27:01;;;;;;;26.13;15.87;;;0.30;99.90;;;;;;5053604;28;20230;-77
2023/01/22 00:29:26;;;;;;;28.40;16.00;;;0.80;99.90;;;;;;5053323;28;20199;-77
2023/01/22 00:31:52;;;;;;;25.27;16.03;;;0.70;99.90;;;;;;5053196;28;20683;-77
2023/01/22 00:34:18;;;;;;;27.70;15.40;;;0.80;99.90;;;;;;5053063;28;20540;-77
2023/01/22 00:36:43;;;;;;;30.13;16.70;;;0.80;99.90;;;;;;5053116;28;20259;-77
2023/01/22 00:39:09;;;;;;;22.63;14.43;;;0.80;99.90;;;;;;5053045;28;20171;-77
2023/01/22 00:41:34;;;;;;;24.93;15.17;;;0.80;99.90;;;;;;5053311;28;20266;-76
2023/01/22 00:44:00;;;;;;;27.23;15.70;;;0.90;99.90;;;;;;5053031;28;20187;-77
2023/01/22 00:46:26;;;;;;;28.57;16.13;;;0.80;99.90;;;;;;5051756;28;20544;-78
2023/01/22 00:48:51;;;;;;;25.90;16.50;;;0.80;99.90;;;;;;5051621;28;20202;-77
2023/01/22 00:51:17;;;;;;;27.30;16.53;;;0.80;99.90;;;;;;5052938;28;20269;-77
2023/01/22 00:53:43;;;;;;;24.00;15.03;;;0.80;99.90;;;;;;5053003;28;20172;-77
2023/01/22 00:56:10;;;;;;;27.50;15.90;;;0.80;99.90;;;;;;5051613;28;20172;-77
2023/01/22 00:58:36;;;;;;;27.30;16.00;;;0.80;99.90;;;;;;5052077;28;20167;-77
2023/01/22 01:01:02;;;;;;;27.17;15.23;;;0.80;99.90;;;;;;5052797;28;20198;-77
2023/01/22 01:03:31;;;;;;;23.60;15.90;;;0.80;99.90;;;;;;5051549;28;20200;-77
2023/01/22 01:05:57;;;;;;;22.77;14.43;;;0.80;99.90;;;;;;5052980;28;20178;-77
2023/01/22 01:08:24;;;;;;;26.00;15.03;;;0.80;99.90;;;;;;5053015;28;20176;-78
2023/01/22 01:10:57;;;;;;;26.67;15.60;;;0.80;99.90;;;;;;5051583;28;20197;-77
2023/01/22 01:13:24;;;;;;;26.43;15.70;;;0.80;99.90;;;;;;5052799;28;20163;-77
2023/01/22 01:15:56;;;;;;;25.20;15.30;;;0.80;99.90;;;;;;5052781;28;20539;-77
2023/01/22 01:18:22;;;;;;;22.83;14.60;;;0.80;99.90;;;;;;5052865;28;20186;-77
2023/01/22 01:20:55;;;;;;;27.00;16.33;;;0.80;99.90;;;;;;5051348;28;20698;-77
2023/01/22 01:23:22;;;;;;;27.47;15.57;;;0.80;99.90;;;;;;5051890;28;20215;-77
2023/01/22 01:25:48;;;;;;;24.07;14.93;;;0.80;99.90;;;;;;5051365;28;20170;-77
2023/01/22 01:28:13;;;;;;;29.90;17.33;;;0.80;99.90;;;;;;5053957;28;20176;-77
2023/01/22 01:30:39;;;;;;;25.30;15.13;;;0.80;99.90;;;;;;5056671;28;20208;-78
2023/01/22 01:33:04;;;;;;;24.03;14.70;;;0.90;99.90;;;;;;5055278;28;20190;-76
2023/01/22 01:35:30;;;;;;;23.03;15.53;;;0.80;99.90;;;;;;5056902;28;20176;-77
2023/01/22 01:37:55;;;;;;;25.97;14.60;;;0.80;99.90;;;;;;5056412;28;20171;-77
2023/01/22 01:40:21;;;;;;;21.33;14.87;;;0.80;99.90;;;;;;5056347;28;20706;-77
2023/01/22 01:42:46;;;;;;;27.83;15.93;;;0.80;99.90;;;;;;5056561;28;20182;-77
2023/01/22 01:45:31;;;;;;;23.40;14.53;;;0.80;99.90;;;;;;5056319;28;20586;-77
2023/01/22 01:48:19;;;;;;;27.07;16.00;;;0.80;99.90;;;;;;5055145;28;20175;-77
2023/01/22 01:50:50;;;;;;;25.53;15.13;;;0.80;99.90;;;;;;5056142;28;20235;-77
2023/01/22 01:53:16;;;;;;;23.73;15.03;;;0.80;99.90;;;;;;5056285;28;20204;-78
2023/01/22 01:55:41;;;;;;;23.53;14.33;;;0.80;99.90;;;;;;5056202;28;20205;-77
2023/01/22 01:58:17;;;;;;;25.50;15.13;;;0.80;99.90;;;;;;5056601;28;20643;-77
2023/01/22 02:00:43;;;;;;;25.63;15.67;;;0.80;99.90;;;;;;5054745;28;20206;-77
2023/01/22 02:03:08;;;;;;;22.73;14.17;;;0.80;99.90;;;;;;5055912;28;20258;-77
2023/01/22 02:05:37;;;;;;;24.23;13.73;;;0.80;99.90;;;;;;5056025;28;20203;-77
2023/01/22 02:08:04;;;;;;;24.27;14.63;;;0.80;99.90;;;;;;5054655;28;20187;-77
2023/01/22 02:10:29;;;;;;;22.10;14.57;;;0.90;99.90;;;;;;5055935;28;20282;-77
2023/01/22 02:13:00;;;;;;;24.47;15.03;;;0.80;99.90;;;;;;5055700;28;20268;-77
2023/01/22 02:15:26;;;;;;;24.50;15.43;;;0.80;99.90;;;;;;5055782;28;20148;-77
2023/01/22 02:17:52;;;;;;;25.57;13.40;;;0.80;99.90;;;;;;5054345;28;20168;-77
2023/01/22 02:20:17;;;;;;;22.53;13.40;;;0.90;99.90;;;;;;5055851;28;20332;-77
2023/01/22 02:22:43;;;;;;;23.37;13.90;;;0.80;99.90;;;;;;5054327;28;20761;-77
2023/01/22 02:25:08;;;;;;;23.77;14.43;;;0.90;99.90;;;;;;5054182;28;20175;-77
2023/01/22 02:27:34;;;;;;;22.23;14.17;;;0.90;99.90;;;;;;5054237;28;20262;-77
2023/01/22 02:30:00;;;;;;;26.03;14.63;;;0.90;99.90;;;;;;5054055;28;20233;-77
2023/01/22 02:32:27;;;;;;;23.30;14.60;;;0.90;99.90;;;;;;5054282;28;20696;-76
2023/01/22 02:34:53;;;;;;;19.37;13.40;;;0.90;99.90;;;;;;5055480;28;20167;-77
2023/01/22 02:37:18;;;;;;;24.60;14.50;;;0.90;99.90;;;;;;5055446;28;20541;-77
2023/01/22 02:39:44;;;;;;;22.83;13.87;;;0.90;99.90;;;;;;5052890;28;20214;-77
2023/01/22 02:42:10;;;;;;;21.73;13.63;;;0.90;99.90;;;;;;5055182;28;20209;-77
2023/01/22 02:44:35;;;;;;;21.23;12.93;;;0.90;99.90;;;;;;5054008;28;20263;-77
2023/01/22 02:47:01;;;;;;;21.93;14.27;;;0.90;99.90;;;;;;5055172;28;20194;-77
2023/01/22 02:49:26;;;;;;;21.93;14.40;;;0.90;99.90;;;;;;5054878;28;20192;-77
2023/01/22 02:51:52;;;;;;;17.90;12.87;;;0.90;99.90;;;;;;5055260;28;20339;-77
2023/01/22 02:54:17;;;;;;;23.83;14.07;;;0.90;99.90;;;;;;5054314;28;20642;-77
2023/01/22 02:56:43;;;;;;;26.03;13.47;;;0.90;99.90;;;;;;5055249;28;20574;-77
2023/01/22 02:59:08;;;;;;;23.30;14.40;;;0.90;99.90;;;;;;5055627;28;20212;-77
2023/01/22 03:01:34;;;;;;;21.10;14.20;;;0.90;99.90;;;;;;5054643;28;20282;-77
2023/01/22 03:04:09;;;;;;;24.47;13.73;;;0.90;99.90;;;;;;5054825;28;20254;-77
2023/01/22 03:06:37;;;;;;;19.70;12.93;;;0.90;99.90;;;;;;5054942;28;20230;-77
2023/01/22 03:09:03;;;;;;;19.57;13.00;;;0.90;99.90;;;;;;5054514;28;20253;-77
2023/01/22 03:11:29;;;;;;;19.83;12.57;;;0.90;99.90;;;;;;5054838;28;20199;-77
2023/01/22 03:22:09;;;;;;;20.13;12.77;;;0.90;99.90;;;;;;5054337;28;20214;-77
2023/01/22 03:24:35;;;;;;;16.03;11.73;;;0.90;99.90;;;;;;5054178;28;20209;-77
2023/01/22 03:27:02;;;;;;;23.17;13.57;;;0.90;99.90;;;;;;5054517;28;20199;-77
2023/01/22 03:29:28;;;;;;;18.50;12.50;;;0.90;99.90;;;;;;5053016;28;20214;-77
2023/01/22 03:31:53;;;;;;;18.77;12.53;;;0.90;99.90;;;;;;5054361;28;20199;-77
2023/01/22 03:34:21;;;;;;;21.03;12.00;;;0.90;99.90;;;;;;5052907;28;20183;-77
2023/01/22 03:36:47;;;;;;;17.40;12.27;;;0.90;99.90;;;;;;5054270;28;20194;-77
2023/01/22 03:39:13;;;;;;;17.63;12.20;;;0.90;99.90;;;;;;5052801;28;20669;-77
2023/01/22 03:41:39;;;;;;;15.90;11.73;;;0.80;99.90;;;;;;5054219;28;20230;-77
2023/01/22 03:44:05;;;;;;;16.23;11.40;;;0.80;99.90;;;;;;5052642;28;20182;-77
2023/01/22 03:46:31;;;;;;;18.10;11.87;;;0.80;99.90;;;;;;5054183;28;20231;-77
2023/01/22 03:48:57;;;;;;;17.30;10.97;;;0.80;99.90;;;;;;5054106;28;20333;-76
2023/01/22 03:51:23;;;;;;;14.10;10.60;;;0.80;99.90;;;;;;5053729;28;20249;-77
2023/01/22 03:53:49;;;;;;;16.33;12.17;;;0.80;99.90;;;;;;5053979;28;20186;-77
2023/01/22 03:56:17;;;;;;;15.30;10.63;;;0.80;99.90;;;;;;5053688;28;20179;-77
2023/01/22 03:58:43;;;;;;;18.33;11.20;;;0.80;99.90;;;;;;5054002;28;20198;-77
2023/01/22 04:01:15;;;;;;;15.57;11.03;;;0.80;99.90;;;;;;5054065;28;20678;-77
2023/01/22 04:03:41;;;;;;;16.27;11.60;;;0.80;99.90;;;;;;5053548;28;20198;-77
2023/01/22 04:06:09;;;;;;;16.67;11.70;;;0.80;99.90;;;;;;5052288;28;20229;-77
2023/01/22 04:08:36;;;;;;;16.47;11.07;;;0.80;99.90;;;;;;5052368;28;20176;-77
2023/01/22 04:11:02;;;;;;;15.87;10.40;;;0.80;99.90;;;;;;5053389;28;20671;-77
2023/01/22 04:13:29;;;;;;;14.63;10.50;;;0.80;99.90;;;;;;5053558;28;20172;-77
2023/01/22 04:15:55;;;;;;;16.77;10.97;;;0.80;99.90;;;;;;5052177;28;20176;-77
2023/01/22 04:18:21;;;;;;;16.17;10.80;;;0.80;99.90;;;;;;5053414;28;20168;-77
2023/01/22 04:20:50;;;;;;;15.83;10.67;;;0.70;99.90;;;;;;5053101;28;20210;-77
2023/01/22 04:23:17;;;;;;;13.67;10.13;;;0.80;99.90;;;;;;5053322;28;20250;-77
2023/01/22 04:25:43;;;;;;;13.47;10.03;;;0.80;99.90;;;;;;5053284;28;20176;-77
2023/01/22 04:28:13;;;;;;;15.53;10.37;;;0.80;99.90;;;;;;5053235;28;20206;-77
2023/01/22 04:30:39;;;;;;;14.10;10.47;;;0.80;99.90;;;;;;5051599;28;20206;-78
2023/01/22 04:33:05;;;;;;;15.17;10.90;;;0.80;99.90;;;;;;5053148;28;20175;-77
2023/01/22 04:35:31;;;;;;;15.97;11.17;;;0.80;99.90;;;;;;5051896;28;20176;-77
2023/01/22 04:37:57;;;;;;;14.03;10.03;;;0.70;99.90;;;;;;5053441;28;20169;-77
2023/01/22 04:40:22;;;;;;;15.20;10.20;;;0.70;99.90;;;;;;5051601;28;20659;-78
2023/01/22 04:42:48;;;;;;;14.57;10.67;;;0.70;99.90;;;;;;5052928;28;20190;-77
2023/01/22 04:45:14;;;;;;;15.63;10.17;;;0.70;99.90;;;;;;5053238;28;20638;-77
2023/01/22 04:47:45;;;;;;;16.73;11.80;;;0.70;99.90;;;;;;5053194;28;20179;-77
2023/01/22 04:50:19;;;;;;;15.27;10.43;;;0.70;99.90;;;;;;5052938;28;20278;-77
2023/01/22 04:52:45;;;;;;;13.67;10.30;;;0.70;99.90;;;;;;5051681;28;20226;-77
2023/01/22 04:55:11;;;;;;;19.23;11.67;;;0.70;99.90;;;;;;5051711;28;20182;-77
2023/01/22 04:57:37;;;;;;;15.07;10.90;;;0.70;99.90;;;;;;5052947;28;20199;-77
2023/01/22 05:00:05;;;;;;;15.60;11.17;;;0.70;99.90;;;;;;5051692;28;20187;-77
2023/01/22 05:02:31;;;;;;;19.43;11.60;;;0.60;99.90;;;;;;5054137;28;20199;-77
2023/01/22 05:04:56;;;;;;;13.93;11.23;;;0.70;99.90;;;;;;5055978;28;20540;-77
2023/01/22 05:07:22;;;;;;;12.67;9.50;;;0.70;99.90;;;;;;5056847;28;20183;-76
2023/01/22 05:09:47;;;;;;;15.27;11.10;;;0.60;99.90;;;;;;5056792;28;20201;-77
2023/01/22 05:12:13;;;;;;;15.57;10.93;;;0.60;99.90;;;;;;5056789;28;20201;-77
2023/01/22 05:14:38;;;;;;;15.23;10.83;;;0.70;99.90;;;;;;5055458;28;20183;-77
2023/01/22 05:17:04;;;;;;;16.33;10.80;;;0.70;99.90;;;;;;5055442;28;20538;-77
2023/01/22 05:19:29;;;;;;;15.00;10.37;;;0.60;99.90;;;;;;5055528;28;20181;-77
2023/01/22 05:21:55;;;;;;;15.43;10.00;;;0.70;99.90;;;;;;5056594;28;20219;-77
2023/01/22 05:24:21;;;;;;;16.40;10.67;;;0.60;99.90;;;;;;5055685;28;20183;-77
2023/01/22 05:26:46;;;;;;;14.90;10.63;;;0.70;99.90;;;;;;5056835;28;20171;-77
2023/01/22 05:29:12;;;;;;;17.27;11.47;;;0.70;99.90;;;;;;5055803;28;20202;-77
2023/01/22 05:31:37;;;;;;;19.47;10.93;;;0.70;99.90;;;;;;5055111;28;20191;-77
2023/01/22 05:34:03;;;;;;;17.60;10.70;;;0.70;99.90;;;;;;5056490;28;20655;-77
2023/01/22 05:36:29;;;;;;;15.60;10.63;;;0.70;99.90;;;;;;5055241;28;20179;-77
2023/01/22 05:38:54;;;;;;;14.43;10.33;;;0.70;99.90;;;;;;5055235;28;20230;-77
2023/01/22 05:41:20;;;;;;;14.83;10.17;;;0.70;99.90;;;;;;5056543;28;20240;-77
2023/01/22 05:43:46;;;;;;;14.10;10.73;;;0.60;99.90;;;;;;5056391;28;20182;-77
2023/01/22 05:46:11;;;;;;;16.40;10.10;;;0.70;99.90;;;;;;5056428;28;20636;-77
2023/01/22 05:48:37;;;;;;;14.30;9.83;;;0.70;99.90;;;;;;5054844;28;20172;-77
2023/01/22 05:51:05;;;;;;;16.20;10.80;;;0.70;99.90;;;;;;5055921;28;20285;-77
2023/01/22 05:53:31;;;;;;;15.90;10.70;;;0.70;99.90;;;;;;5055995;28;20198;-77
2023/01/22 05:56:01;;;;;;;14.00;9.57;;;0.70;99.90;;;;;;5056093;28;20694;-77
2023/01/22 05:58:27;;;;;;;17.73;11.07;;;0.70;99.90;;;;;;5054579;28;20179;-77
2023/01/22 06:00:53;;;;;;;14.70;10.50;;;0.70;99.90;;;;;;5055825;28;20199;-77
2023/01/22 06:03:18;;;;;;;15.37;10.30;;;0.70;99.90;;;;;;5056140;28;20180;-77
2023/01/22 06:05:44;;;;;;;13.37;10.37;;;0.70;99.90;;;;;;5054536;28;20585;-77
2023/01/22 06:08:10;;;;;;;19.00;11.97;;;0.70;99.90;;;;;;5056085;28;20638;-77
2023/01/22 06:10:35;;;;;;;16.30;11.00;;;0.70;99.90;;;;;;5054522;28;20202;-78
2023/01/22 06:13:01;;;;;;;16.93;10.53;;;0.70;99.90;;;;;;5055508;28;20243;-77
2023/01/22 06:15:26;;;;;;;16.10;10.53;;;0.70;99.90;;;;;;5055672;28;20710;-77
2023/01/22 06:17:52;;;;;;;18.60;10.73;;;0.70;99.90;;;;;;5055601;28;20180;-77
2023/01/22 06:20:18;;;;;;;14.57;10.77;;;0.70;99.90;;;;;;5055493;28;20226;-77
2023/01/22 06:22:43;;;;;;;19.17;10.77;;;0.70;99.90;;;;;;5054204;28;20290;-77
2023/01/22 06:25:09;;;;;;;17.47;10.93;;;0.80;99.90;;;;;;5055360;28;20207;-77
2023/01/22 06:27:34;;;;;;;14.80;10.27;;;0.80;99.90;;;;;;5055339;28;20180;-77
2023/01/22 06:30:00;;;;;;;14.73;10.10;;;0.80;99.90;;;;;;5055192;28;20237;-77
2023/01/22 06:32:25;;;;;;;14.30;10.13;;;0.80;99.90;;;;;;5055196;28;20191;-77
2023/01/22 06:34:51;;;;;;;18.03;10.03;;;0.80;99.90;;;;;;5055168;28;20194;-78
2023/01/22 06:37:17;;;;;;;14.60;10.27;;;0.80;99.90;;;;;;5055599;28;20210;-77
2023/01/22 06:39:42;;;;;;;14.03;9.63;;;0.80;99.90;;;;;;5053968;28;20180;-78
2023/01/22 06:42:08;;;;;;;14.00;10.23;;;0.80;99.90;;;;;;5055562;28;20719;-77
2023/01/22 06:44:33;;;;;;;13.70;9.67;;;0.80;99.90;;;;;;5053375;28;20186;-78
2023/01/22 06:46:59;;;;;;;14.63;9.47;;;0.80;99.90;;;;;;5054443;28;20182;-76
2023/01/22 06:49:24;;;;;;;14.50;10.10;;;0.80;99.90;;;;;;5053532;28;20199;-76
2023/01/22 06:51:50;;;;;;;13.07;9.63;;;0.80;99.90;;;;;;5054758;28;20191;-77
2023/01/22 06:54:15;;;;;;;13.13;9.97;;;0.80;99.90;;;;;;5054839;28;20686;-77
2023/01/22 06:56:41;;;;;;;15.00;10.33;;;0.80;99.90;;;;;;5054702;28;20699;-76
2023/01/22 06:59:06;;;;;;;16.10;10.63;;;0.80;99.90;;;;;;5054664;28;20544;-76
2023/01/22 07:01:32;;;;;;;15.60;10.60;;;0.80;99.90;;;;;;5053303;28;20195;-76
2023/01/22 07:03:58;;;;;;;15.87;10.80;;;0.90;99.90;;;;;;5054596;28;20172;-76
2023/01/22 07:06:23;;;;;;;14.00;10.37;;;0.80;99.90;;;;;;5053365;28;20171;-76
2023/01/22 07:08:49;;;;;;;16.13;9.53;;;0.80;99.90;;;;;;5054439;28;20175;-76
2023/01/22 07:11:15;;;;;;;16.00;10.83;;;0.90;99.90;;;;;;5054389;28;20231;-77
2023/01/22 07:13:41;;;;;;;13.30;9.93;;;0.80;99.90;;;;;;5054472;28;20180;-76
2023/01/22 07:16:07;;;;;;;13.20;9.73;;;0.80;99.90;;;;;;5053025;28;20179;-77
2023/01/22 07:18:32;;;;;;;11.03;8.40;;;0.80;99.90;;;;;;5054415;28;20189;-77
2023/01/22 07:21:03;;;;;;;12.00;9.70;;;0.80;99.90;;;;;;5052767;28;20214;-77
2023/01/22 07:23:29;;;;;;;13.23;10.23;;;0.80;99.90;;;;;;5052850;28;20532;-76
2023/01/22 07:25:55;;;;;;;12.90;9.30;;;0.80;99.90;;;;;;5053621;28;20172;-76
2023/01/22 07:28:20;;;;;;;12.80;9.33;;;0.80;99.90;;;;;;5052823;28;20252;-76
2023/01/22 07:30:46;;;;;;;11.97;9.10;;;0.80;99.90;;;;;;5052590;28;20203;-76
2023/01/22 07:33:12;;;;;;;14.27;9.37;;;0.80;99.90;;;;;;5053965;28;20168;-76
2023/01/22 07:35:38;;;;;;;11.00;9.07;;;0.80;99.90;;;;;;5052663;28;20176;-76
2023/01/22 07:38:03;;;;;;;13.93;9.27;;;0.80;99.90;;;;;;5052651;28;20650;-76
2023/01/22 07:40:29;;;;;;;13.77;9.00;;;0.90;99.90;;;;;;5053674;28;20190;-77
2023/01/22 07:42:54;;;;;;;13.47;8.23;;;0.80;99.90;;;;;;5054078;28;20191;-77
2023/01/22 07:45:23;;;;;;;15.17;9.50;;;0.80;99.90;;;;;;5053892;28;20198;-77
2023/01/22 07:47:57;;;;;;;15.43;9.50;;;0.90;99.90;;;;;;5053755;28;20179;-77
2023/01/22 07:50:25;;;;;;;15.30;8.13;;;0.90;99.90;;;;;;5053831;28;20199;-77
2023/01/22 07:52:51;;;;;;;13.83;8.40;;;0.80;99.90;;;;;;5052036;28;20180;-76
2023/01/22 07:55:16;;;;;;;12.63;8.03;;;0.90;99.90;;;;;;5051840;28;20260;-76
2023/01/22 07:57:42;;;;;;;8.70;7.80;;;0.90;99.90;;;;;;5053281;28;20624;-76
2023/01/22 08:00:11;;;;;;;13.27;9.17;;;0.90;99.90;;;;;;5052909;28;20182;-77
2023/01/22 08:02:37;;;;;;;12.70;8.93;;;0.90;99.90;;;;;;5052018;28;20207;-76
2023/01/22 08:05:03;;;;;;;13.83;8.63;;;0.90;99.90;;;;;;5052999;28;20575;-76
2023/01/22 08:07:29;;;;;;;14.70;8.77;;;0.90;99.90;;;;;;5052901;28;20183;-76
2023/01/22 08:09:55;;;;;;;13.87;10.10;;;0.90;99.90;;;;;;5051776;28;20206;-76
2023/01/22 08:12:21;;;;;;;13.33;9.13;;;0.90;99.90;;;;;;5052019;28;20195;-76
2023/01/22 08:14:46;;;;;;;14.50;9.03;;;0.90;99.90;;;;;;5053981;28;20182;-78
2023/01/22 08:17:12;;;;;;;11.23;8.50;;;1.00;99.90;;;;;;5053676;28;20180;-78
2023/01/22 08:19:37;;;;;;;13.30;9.80;;;1.00;99.90;;;;;;5053754;28;20186;-77
2023/01/22 08:22:03;;;;;;;11.63;9.30;;;1.00;99.90;;;;;;5051562;28;20218;-77
2023/01/22 08:24:29;;;;;;;11.63;8.27;;;1.00;99.90;;;;;;5051918;28;20503;-78
2023/01/22 08:26:55;;;;;;;12.43;8.73;;;1.00;99.90;;;;;;5051883;28;20179;-77
2023/01/22 08:29:21;;;;;;;11.60;9.03;;;1.00;99.90;;;;;;5051751;28;20306;-78
2023/01/22 08:31:46;;;;;;;13.40;8.97;;;1.00;99.90;;;;;;5052053;28;20195;-78
2023/01/22 08:34:12;;;;;;;13.70;9.93;;;1.00;99.90;;;;;;5052120;28;20544;-77
2023/01/22 08:36:37;;;;;;;13.33;8.80;;;1.00;99.90;;;;;;5051073;28;20271;-78
2023/01/22 08:39:03;;;;;;;11.37;8.43;;;1.00;99.90;;;;;;5053428;28;20183;-78
2023/01/22 08:41:29;;;;;;;12.27;8.97;;;1.00;99.90;;;;;;5052115;28;20667;-78
2023/01/22 08:43:54;;;;;;;13.03;9.13;;;1.00;99.90;;;;;;5053592;28;20643;-78
2023/01/22 08:46:20;;;;;;;14.20;9.50;;;1.00;99.90;;;;;;5051542;28;20189;-78
2023/01/22 08:48:47;;;;;;;10.97;9.07;;;1.00;99.90;;;;;;5052777;28;20194;-77
2023/01/22 08:51:13;;;;;;;11.20;8.67;;;1.10;99.90;;;;;;5052809;28;20199;-77
2023/01/22 08:53:39;;;;;;;11.47;8.40;;;1.00;99.90;;;;;;5052672;28;20170;-78
2023/01/22 08:56:05;;;;;;;13.33;9.40;;;1.10;99.90;;;;;;5052724;28;20183;-77
2023/01/22 08:58:30;;;;;;;13.43;9.40;;;1.10;99.90;;;;;;5053103;28;20669;-77
2023/01/22 09:00:56;;;;;;;14.37;8.57;;;1.10;99.90;;;;;;5051737;28;20206;-77
2023/01/22 09:03:22;;;;;;;16.53;8.97;;;1.10;99.90;;;;;;5051893;28;20270;-78
2023/01/22 09:05:47;;;;;;;14.10;9.10;;;1.10;99.90;;;;;;5051974;28;20662;-77
2023/01/22 09:08:13;;;;;;;13.27;10.17;;;1.10;99.90;;;;;;5053529;28;20218;-79
2023/01/22 09:10:39;;;;;;;13.13;9.30;;;1.10;99.90;;;;;;5053284;28;20202;-78
2023/01/22 09:13:04;;;;;;;12.70;9.13;;;1.10;99.90;;;;;;5053984;28;20642;-77
2023/01/22 09:15:30;;;;;;;12.63;10.10;;;1.10;99.90;;;;;;5053320;28;20539;-78
2023/01/22 09:17:55;;;;;;;16.20;10.07;;;1.10;99.90;;;;;;5052594;28;20666;-78
2023/01/22 09:20:21;;;;;;;11.73;9.17;;;1.10;99.90;;;;;;5055324;28;20254;-79
2023/01/22 09:22:48;;;;;;;18.97;9.77;;;1.10;99.90;;;;;;5056328;28;20187;-78
2023/01/22 09:25:14;;;;;;;12.20;9.17;;;1.10;99.90;;;;;;5056406;28;20184;-78
2023/01/22 09:27:40;;;;;;;13.87;9.90;;;1.10;99.90;;;;;;5056562;28;20214;-78
2023/01/22 09:30:08;;;;;;;13.80;9.37;;;1.20;99.90;;;;;;5054888;28;20671;-78
2023/01/22 09:32:34;;;;;;;13.00;10.00;;;1.20;99.90;;;;;;5054926;28;20180;-77
2023/01/22 09:34:59;;;;;;;14.20;10.00;;;1.20;99.90;;;;;;5056657;28;20175;-79
2023/01/22 09:37:25;;;;;;;12.20;8.67;;;1.20;99.90;;;;;;5056928;28;20218;-79
2023/01/22 09:39:51;;;;;;;12.47;9.13;;;1.20;99.90;;;;;;5056478;28;20194;-79
2023/01/22 09:42:23;;;;;;;14.23;9.77;;;1.20;99.90;;;;;;5054827;28;20192;-77
2023/01/22 09:44:54;;;;;;;16.67;10.50;;;1.30;99.90;;;;;;5052769;28;20213;-77
2023/01/22 09:47:40;;;;;;;13.20;9.90;;;1.20;99.90;;;;;;5053822;28;20160;-77
2023/01/22 09:50:24;;;;;;;12.27;9.60;;;1.20;99.90;;;;;;5056842;28;20723;-78
2023/01/22 09:52:52;;;;;;;12.77;8.93;;;1.20;99.90;;;;;;5056847;28;20159;-78
2023/01/22 09:55:21;;;;;;;16.77;11.07;;;1.20;99.90;;;;;;5056819;28;20175;-78
2023/01/22 09:57:53;;;;;;;13.57;10.37;;;1.20;99.90;;;;;;5057242;28;20171;-76
2023/01/22 10:00:22;;;;;;;13.90;9.87;;;1.30;99.90;;;;;;5054570;28;20267;-76
2023/01/22 10:02:51;;;;;;;15.00;10.03;;;1.20;99.90;;;;;;5054519;28;20193;-76
2023/01/22 10:05:34;;;;;;;13.80;10.10;;;1.30;99.90;;;;;;5055827;28;20257;-76
2023/01/22 10:08:03;;;;;;;13.80;9.67;;;1.30;99.90;;;;;;5054534;28;20262;-76
2023/01/22 10:10:31;;;;;;;13.77;10.27;;;1.30;99.90;;;;;;5054377;28;20200;-76
2023/01/22 10:13:22;;;;;;;13.50;9.97;;;1.30;99.90;;;;;;5055649;28;20536;-76
2023/01/22 10:15:50;;;;;;;13.60;10.10;;;1.30;99.90;;;;;;5054375;28;20660;-76
2023/01/22 10:18:44;;;;;;;12.60;9.43;;;1.30;99.90;;;;;;5055542;28;20218;-76
2023/01/22 10:21:23;;;;;;;11.53;9.33;;;1.40;99.90;;;;;;5054150;28;20712;-76
2023/01/22 10:23:49;;;;;;;14.63;10.27;;;1.40;99.90;;;;;;5055443;28;20187;-76
2023/01/22 10:26:23;;;;;;;13.40;9.83;;;1.30;99.90;;;;;;5055572;28;20175;-76
2023/01/22 10:28:53;;;;;;;13.97;10.17;;;1.30;99.90;;;;;;5054100;28;20159;-76
2023/01/22 10:31:32;;;;;;;13.97;10.17;;;1.30;99.90;;;;;;5055400;28;20534;-76
2023/01/22 10:34:03;;;;;;;13.50;9.90;;;1.30;99.90;;;;;;5055289;28;20166;-76
2023/01/22 10:36:30;;;;;;;19.63;11.07;;;1.30;99.90;;;;;;5055468;28;20168;-76
2023/01/22 10:39:25;;;;;;;12.37;10.03;;;1.40;99.90;;;;;;5055137;28;20176;-76
2023/01/22 10:42:00;;;;;;;13.43;10.40;;;1.30;99.90;;;;;;5045366;28;20679;-76
2023/01/22 10:44:26;;;;;;;13.50;10.27;;;1.30;99.90;;;;;;5055116;28;20163;-75
2023/01/22 10:46:53;;;;;;;15.17;10.60;;;1.40;99.90;;;;;;5055181;28;20194;-76
2023/01/22 10:49:22;;;;;;;14.40;11.30;;;1.30;99.90;;;;;;5053650;28;20199;-76
2023/01/22 10:51:53;;;;;;;15.17;11.17;;;1.40;99.90;;;;;;5053650;28;20198;-76
2023/01/22 10:54:38;;;;;;;14.20;10.80;;;1.40;99.90;;;;;;5055004;28;20172;-76
2023/01/22 10:57:20;;;;;;;15.90;11.50;;;1.40;99.90;;;;;;5053595;28;20181;-76
2023/01/22 10:59:52;;;;;;;15.43;10.30;;;1.50;99.90;;;;;;5054092;28;20152;-76
2023/01/22 11:02:24;;;;;;;14.83;11.57;;;1.40;99.90;;;;;;5053317;28;20196;-76
2023/01/22 11:04:50;;;;;;;14.67;11.70;;;1.50;99.90;;;;;;5054699;28;20693;-76
2023/01/22 11:07:27;;;;;;;17.03;11.10;;;1.50;99.90;;;;;;5054578;28;20544;-76
2023/01/22 11:10:08;;;;;;;15.90;11.53;;;1.50;99.90;;;;;;5054412;28;20195;-76
2023/01/22 11:12:40;;;;;;;16.13;10.77;;;1.50;99.90;;;;;;5053221;28;20678;-76
2023/01/22 11:15:23;;;;;;;14.63;10.63;;;1.50;99.90;;;;;;5054376;28;20662;-77
2023/01/22 11:17:55;;;;;;;15.20;10.67;;;1.50;99.90;;;;;;5054442;28;20210;-76
2023/01/22 11:20:40;;;;;;;18.40;11.83;;;1.60;99.90;;;;;;5054140;28;20187;-78
2023/01/22 11:23:08;;;;;;;15.13;11.23;;;1.50;99.90;;;;;;5054875;28;20319;-76
2023/01/22 11:25:43;;;;;;;14.80;11.37;;;1.60;99.90;;;;;;5054240;28;20180;-76
2023/01/22 11:28:19;;;;;;;21.20;11.40;;;1.50;99.90;;;;;;5054184;28;20167;-76
2023/01/22 11:30:57;;;;;;;16.07;11.90;;;1.60;99.90;;;;;;5052642;28;20211;-77
2023/01/22 11:33:37;;;;;;;15.63;11.57;;;1.60;99.90;;;;;;5054210;28;20614;-77
2023/01/22 11:36:43;;;;;;;14.43;11.97;;;1.60;99.90;;;;;;5052683;28;20175;-76
2023/01/22 11:39:22;;;;;;;16.47;12.17;;;1.60;99.90;;;;;;5041611;28;20194;-76
2023/01/22 11:42:11;;;;;;;15.53;12.00;;;1.60;99.90;;;;;;5052745;28;20580;-76
2023/01/22 11:44:40;;;;;;;16.03;11.93;;;1.60;99.90;;;;;;5053914;28;20592;-77
2023/01/22 11:47:14;;;;;;;17.63;12.30;;;1.60;99.90;;;;;;5052737;28;20230;-77
2023/01/22 11:50:15;;;;;;;17.20;12.63;;;1.70;99.90;;;;;;5052717;28;20218;-76
2023/01/22 11:52:53;;;;;;;17.47;13.37;;;1.70;99.90;;;;;;5052974;28;20288;-77
2023/01/22 11:55:23;;;;;;;16.13;12.40;;;1.70;99.90;;;;;;5052460;28;20198;-77
2023/01/22 11:57:52;;;;;;;18.37;13.47;;;1.70;99.90;;;;;;5052423;28;20530;-76
2023/01/22 12:00:29;;;;;;;21.27;14.17;;;1.70;99.90;;;;;;5053910;28;20241;-77
2023/01/22 12:03:25;;;;;;;20.53;13.50;;;1.70;99.90;;;;;;5052555;28;20171;-76
2023/01/22 12:06:14;;;;;;;20.10;11.97;;;1.70;99.90;;;;;;5053857;28;20527;-77
2023/01/22 12:09:05;;;;;;;18.70;13.07;;;1.80;99.90;;;;;;5052531;28;20194;-76
2023/01/22 12:11:58;;;;;;;18.03;13.00;;;1.80;99.90;;;;;;5052078;28;20207;-76
2023/01/22 12:15:13;;;;;;;16.03;13.00;;;1.80;99.90;;;;;;5052357;28;20159;-76
2023/01/22 12:18:00;;;;;;;18.77;12.43;;;1.80;99.90;;;;;;5050344;28;20586;-76
2023/01/22 12:20:33;;;;;;;16.83;12.30;;;1.80;99.90;;;;;;5051979;28;20191;-77
2023/01/22 12:23:05;;;;;;;21.57;13.40;;;1.90;99.90;;;;;;5053874;28;20176;-76
2023/01/22 12:25:41;;;;;;;17.13;13.33;;;1.90;99.90;;;;;;5053309;28;20576;-77
2023/01/22 12:28:16;;;;;;;19.87;13.43;;;1.90;99.90;;;;;;5052120;28;20171;-76
2023/01/22 12:31:11;;;;;;;18.03;13.07;;;1.90;99.90;;;;;;5051807;28;20276;-77
2023/01/22 12:33:40;;;;;;;18.67;12.63;;;1.90;99.90;;;;;;5051916;28;20172;-76
2023/01/22 12:36:11;;;;;;;21.00;14.17;;;1.90;99.90;;;;;;5053169;28;20705;-76
2023/01/22 12:38:54;;;;;;;17.20;12.47;;;1.90;99.90;;;;;;5051938;28;20170;-76
2023/01/22 12:41:43;;;;;;;17.53;12.13;;;1.90;99.90;;;;;;5053024;28;20179;-77
2023/01/22 12:44:20;;;;;;;17.40;12.50;;;1.90;99.90;;;;;;5053349;28;20558;-76
2023/01/22 12:46:48;;;;;;;19.00;13.23;;;1.90;99.90;;;;;;5053180;28;20732;-76
2023/01/22 12:49:15;;;;;;;18.37;12.83;;;1.90;99.90;;;;;;5052752;28;20290;-76
2023/01/22 12:51:44;;;;;;;17.73;12.07;;;1.90;99.90;;;;;;5052910;28;20183;-76
2023/01/22 12:54:21;;;;;;;17.10;12.47;;;2.00;99.90;;;;;;5051633;28;20182;-76